Time;durP1;ratioP1;P1;durP2;ratioP2;P2;SDS_P1;SDS_P2;PMS_P1;PMS_P2;Temp;Humidity;BMP_temperature;BMP_pressure;BME280_temperature;BME280_humidity;BME280_pressure;Samples;Min_cycle;Max_cycle;Signal;HPM_P1;HPM_P2
2021/05/09 00:00:55;;;;;;;3.53;3.23;;;11.50;93.40;;;;;;6332116;28;20484;-66
2021/05/09 00:03:57;;;;;;;5.37;3.30;;;11.50;93.40;;;;;;6337836;27;20467;-67
2021/05/09 00:07:00;;;;;;;5.20;3.50;;;11.50;93.30;;;;;;6339006;28;20528;-67
2021/05/09 00:10:04;;;;;;;6.10;3.60;;;11.60;93.50;;;;;;6333383;27;20999;-66
2021/05/09 00:13:08;;;;;;;4.00;3.30;;;11.60;93.50;;;;;;6328771;28;20491;-67
2021/05/09 00:16:11;;;;;;;4.63;4.07;;;11.60;93.50;;;;;;6328504;28;20479;-66
2021/05/09 00:19:13;;;;;;;3.80;3.50;;;11.60;93.50;;;;;;6328573;28;20444;-67
2021/05/09 00:22:15;;;;;;;3.80;3.50;;;11.50;93.20;;;;;;6328041;28;20432;-67
2021/05/09 00:25:20;;;;;;;4.17;3.40;;;11.40;93.30;;;;;;6328220;28;20928;-67
2021/05/09 00:28:22;;;;;;;3.10;2.90;;;11.30;93.30;;;;;;6328201;28;20440;-67
2021/05/09 00:31:24;;;;;;;3.33;3.13;;;11.30;93.70;;;;;;6328212;28;20833;-67
2021/05/09 00:34:26;;;;;;;4.07;3.07;;;11.20;94.00;;;;;;6327789;28;20826;-67
2021/05/09 00:37:28;;;;;;;5.80;3.60;;;11.10;94.30;;;;;;6328465;28;20471;-67
2021/05/09 00:40:34;;;;;;;3.53;3.23;;;11.10;94.40;;;;;;6327968;28;20479;-67
2021/05/09 00:43:36;;;;;;;6.83;4.83;;;11.00;94.40;;;;;;6328438;28;20479;-67
2021/05/09 00:46:38;;;;;;;6.47;3.80;;;10.90;94.80;;;;;;6327819;28;20491;-67
2021/05/09 00:49:41;;;;;;;3.70;3.40;;;10.90;95.00;;;;;;6327775;28;20801;-67
2021/05/09 00:52:46;;;;;;;5.23;3.90;;;10.80;95.20;;;;;;6329566;28;20471;-67
2021/05/09 00:55:51;;;;;;;4.10;3.73;;;10.90;95.20;;;;;;6329407;28;20479;-68
2021/05/09 00:58:55;;;;;;;4.93;3.60;;;10.80;95.40;;;;;;6323624;28;20464;-67
2021/05/09 01:01:58;;;;;;;3.80;3.50;;;10.70;95.60;;;;;;6327577;28;20472;-68
2021/05/09 01:05:01;;;;;;;4.10;3.70;;;10.80;95.70;;;;;;6327673;28;20472;-69
2021/05/09 01:08:03;;;;;;;3.67;3.37;;;10.60;95.90;;;;;;6327525;28;20567;-67
2021/05/09 01:11:08;;;;;;;4.13;3.83;;;10.60;96.00;;;;;;6327292;28;20817;-68
2021/05/09 01:14:10;;;;;;;4.13;3.83;;;10.60;96.20;;;;;;6326538;28;20479;-67
2021/05/09 01:17:13;;;;;;;4.50;4.10;;;10.50;96.40;;;;;;6327428;28;20505;-67
2021/05/09 01:20:36;;;;;;;4.63;4.23;;;10.50;96.60;;;;;;6327124;28;20464;-67
2021/05/09 01:23:38;;;;;;;4.37;3.97;;;10.40;96.80;;;;;;6327360;28;20483;-68
2021/05/09 01:26:41;;;;;;;3.67;3.37;;;10.50;96.90;;;;;;6327007;28;20464;-68
2021/05/09 01:29:43;;;;;;;5.50;3.83;;;10.40;97.00;;;;;;6326752;28;20606;-67
2021/05/09 01:32:45;;;;;;;4.60;4.20;;;10.40;97.10;;;;;;6326633;28;20550;-68
2021/05/09 01:35:49;;;;;;;5.07;4.00;;;10.30;97.40;;;;;;6326997;28;20476;-68
2021/05/09 01:38:51;;;;;;;3.67;3.37;;;10.30;97.20;;;;;;6326819;28;20479;-68
2021/05/09 01:41:53;;;;;;;3.63;3.33;;;10.20;97.50;;;;;;6326462;28;20506;-69
2021/05/09 01:44:57;;;;;;;4.23;3.57;;;10.20;97.60;;;;;;6326687;28;20490;-68
2021/05/09 01:47:59;;;;;;;4.40;4.00;;;10.20;97.70;;;;;;6326627;28;20467;-67
2021/05/09 01:51:02;;;;;;;4.00;3.70;;;10.10;97.80;;;;;;6326533;28;20613;-68
2021/05/09 01:54:05;;;;;;;3.57;3.27;;;10.10;98.00;;;;;;6326666;28;20460;-68
2021/05/09 01:57:07;;;;;;;8.07;3.50;;;10.10;98.10;;;;;;6326288;28;20471;-68
2021/05/09 02:00:13;;;;;;;3.63;3.33;;;10.10;98.10;;;;;;6326156;28;20472;-67
2021/05/09 02:03:16;;;;;;;3.80;3.50;;;10.00;98.10;;;;;;6326246;28;20866;-68
2021/05/09 02:06:19;;;;;;;4.30;3.90;;;10.10;98.10;;;;;;6316737;28;20468;-67
2021/05/09 02:09:21;;;;;;;4.67;3.93;;;10.10;98.10;;;;;;6326068;28;20551;-68
2021/05/09 02:12:24;;;;;;;3.77;3.47;;;10.20;98.10;;;;;;6325771;28;20464;-68
2021/05/09 02:15:27;;;;;;;3.90;3.30;;;10.20;98.10;;;;;;6325898;28;20529;-69
2021/05/09 02:18:35;;;;;;;3.40;3.17;;;10.20;98.10;;;;;;6325707;28;20561;-68
2021/05/09 02:21:38;;;;;;;3.33;3.10;;;10.20;98.10;;;;;;6325793;28;20478;-68
2021/05/09 02:24:41;;;;;;;3.63;3.33;;;10.20;98.20;;;;;;6325902;28;20834;-68
2021/05/09 02:27:43;;;;;;;3.00;2.60;;;10.10;98.10;;;;;;6325387;28;20983;-68
2021/05/09 02:30:45;;;;;;;3.60;3.10;;;10.00;98.20;;;;;;6325698;28;20476;-68
2021/05/09 02:33:48;;;;;;;3.67;3.40;;;10.00;98.20;;;;;;6325054;28;20985;-68
2021/05/09 02:36:51;;;;;;;3.50;3.30;;;10.00;98.20;;;;;;6325696;28;20472;-68
2021/05/09 02:39:53;;;;;;;4.03;3.73;;;9.90;98.90;;;;;;6325018;28;20468;-69
2021/05/09 02:42:56;;;;;;;3.50;3.20;;;9.90;99.00;;;;;;6325107;28;20467;-68
2021/05/09 02:45:58;;;;;;;4.47;4.07;;;10.00;98.40;;;;;;6324987;28;20477;-68
2021/05/09 02:49:00;;;;;;;3.80;3.50;;;9.90;99.00;;;;;;6325093;28;20479;-67
2021/05/09 02:52:03;;;;;;;4.13;3.73;;;9.90;99.20;;;;;;6324864;28;20464;-67
2021/05/09 02:55:07;;;;;;;7.50;4.50;;;9.90;99.10;;;;;;6324925;28;20479;-67
2021/05/09 02:58:09;;;;;;;5.87;3.50;;;9.80;99.20;;;;;;6325009;28;20479;-67
2021/05/09 03:01:11;;;;;;;4.30;4.00;;;9.80;99.30;;;;;;6324093;28;20945;-66
2021/05/09 03:04:14;;;;;;;5.03;4.50;;;9.70;99.50;;;;;;6325092;28;20494;-66
2021/05/09 03:07:17;;;;;;;4.90;4.50;;;9.60;99.80;;;;;;6315462;28;20436;-68
2021/05/09 03:10:19;;;;;;;3.97;3.67;;;9.50;99.90;;;;;;6324761;28;20461;-67
2021/05/09 03:13:21;;;;;;;4.27;3.47;;;9.60;99.80;;;;;;6324549;28;20448;-67
2021/05/09 03:16:24;;;;;;;4.30;3.93;;;9.60;99.80;;;;;;6324378;28;20813;-67
2021/05/09 03:19:26;;;;;;;3.80;3.50;;;9.60;99.80;;;;;;6324382;28;20464;-67
2021/05/09 03:22:29;;;;;;;3.70;3.40;;;9.60;99.80;;;;;;6324810;28;20440;-68
2021/05/09 03:25:32;;;;;;;4.47;4.07;;;9.60;99.90;;;;;;6324174;28;20980;-67
2021/05/09 03:28:34;;;;;;;4.47;3.90;;;9.60;99.90;;;;;;6324796;28;20456;-67
2021/05/09 03:31:36;;;;;;;4.10;3.60;;;9.60;99.90;;;;;;6324144;28;20976;-68
2021/05/09 03:34:39;;;;;;;4.00;3.53;;;9.60;99.90;;;;;;6324324;28;20471;-68
2021/05/09 03:37:42;;;;;;;8.43;4.30;;;9.50;99.90;;;;;;6323726;28;20978;-68
2021/05/09 03:40:44;;;;;;;3.57;3.00;;;9.50;99.90;;;;;;6323926;28;20476;-68
2021/05/09 03:43:46;;;;;;;3.70;3.40;;;9.50;99.90;;;;;;6324261;28;20979;-68
2021/05/09 03:46:48;;;;;;;4.43;4.10;;;9.50;99.90;;;;;;6324030;28;20472;-68
2021/05/09 03:49:51;;;;;;;4.87;4.37;;;9.50;99.90;;;;;;6324056;28;20812;-68
2021/05/09 03:52:54;;;;;;;3.80;3.40;;;9.50;99.90;;;;;;6324175;28;20472;-68
2021/05/09 03:55:56;;;;;;;4.40;4.00;;;9.50;99.80;;;;;;6324313;28;20475;-68
2021/05/09 03:58:58;;;;;;;4.33;3.93;;;9.50;99.90;;;;;;6323677;28;20985;-68
2021/05/09 04:02:00;;;;;;;4.37;3.80;;;9.50;99.90;;;;;;6324223;28;20464;-68
2021/05/09 04:05:03;;;;;;;4.43;3.73;;;9.50;99.90;;;;;;6324031;28;20475;-68
2021/05/09 04:08:06;;;;;;;4.60;3.83;;;9.50;99.90;;;;;;6324666;28;20468;-68
2021/05/09 04:11:13;;;;;;;6.50;3.93;;;9.60;99.90;;;;;;6318087;28;20511;-68
2021/05/09 04:14:15;;;;;;;3.90;3.50;;;9.60;99.90;;;;;;6323796;28;20619;-68
2021/05/09 04:17:17;;;;;;;3.43;3.10;;;9.70;99.90;;;;;;6323928;28;20475;-68
2021/05/09 04:20:19;;;;;;;5.73;4.53;;;9.80;99.80;;;;;;6323433;28;20490;-68
2021/05/09 04:23:22;;;;;;;5.27;4.77;;;10.00;99.10;;;;;;6323920;28;20961;-68
2021/05/09 04:26:25;;;;;;;4.00;3.70;;;10.10;99.10;;;;;;6323563;28;20464;-68
2021/05/09 04:29:27;;;;;;;3.87;3.57;;;10.10;98.70;;;;;;6323524;28;20468;-67
2021/05/09 04:32:29;;;;;;;6.70;3.70;;;10.20;98.60;;;;;;6323050;28;20475;-67
2021/05/09 04:35:33;;;;;;;4.70;3.20;;;10.30;98.20;;;;;;6323611;28;20483;-68
2021/05/09 04:38:39;;;;;;;4.03;3.70;;;10.30;97.90;;;;;;6323272;28;20479;-67
2021/05/09 04:41:41;;;;;;;4.70;4.20;;;10.40;98.00;;;;;;6322885;28;20969;-67
2021/05/09 04:44:43;;;;;;;4.53;3.60;;;10.60;97.80;;;;;;6323658;28;20464;-68
2021/05/09 04:47:46;;;;;;;4.20;3.80;;;10.70;97.60;;;;;;6323217;28;20467;-67
2021/05/09 04:50:48;;;;;;;4.03;3.80;;;10.80;97.50;;;;;;6325841;28;20472;-68
2021/05/09 04:53:51;;;;;;;3.40;3.10;;;11.00;97.20;;;;;;6328050;28;20464;-68
2021/05/09 04:56:53;;;;;;;3.60;3.20;;;11.10;96.90;;;;;;6328016;28;20476;-67
2021/05/09 04:59:55;;;;;;;4.10;3.80;;;11.20;96.70;;;;;;6327399;28;20484;-67
2021/05/09 05:02:57;;;;;;;3.60;3.37;;;11.40;96.30;;;;;;6327584;28;20464;-68
2021/05/09 05:06:00;;;;;;;3.73;3.43;;;11.60;96.20;;;;;;6327250;28;20536;-68
2021/05/09 05:09:04;;;;;;;3.80;3.50;;;11.70;96.00;;;;;;6327503;28;20479;-67
2021/05/09 05:12:08;;;;;;;4.53;3.77;;;11.90;95.70;;;;;;6327597;28;20969;-67
2021/05/09 05:15:12;;;;;;;3.93;3.60;;;12.10;95.30;;;;;;6322937;28;20472;-65
2021/05/09 05:18:14;;;;;;;4.40;3.20;;;12.20;95.00;;;;;;6327103;28;20483;-66
2021/05/09 05:21:17;;;;;;;3.73;3.33;;;12.40;95.20;;;;;;6326942;28;20480;-66
2021/05/09 05:24:20;;;;;;;4.90;3.13;;;12.40;94.50;;;;;;6327305;28;20472;-65
2021/05/09 05:27:22;;;;;;;4.17;3.80;;;12.60;94.40;;;;;;6326869;28;20992;-64
2021/05/09 05:30:25;;;;;;;3.57;3.23;;;12.70;93.90;;;;;;6326950;28;20597;-64
2021/05/09 05:33:31;;;;;;;3.93;3.33;;;12.70;93.50;;;;;;6326609;28;20525;-64
2021/05/09 05:36:34;;;;;;;3.77;3.10;;;12.80;93.50;;;;;;6326933;28;20476;-65
2021/05/09 05:39:37;;;;;;;5.27;3.40;;;13.00;93.40;;;;;;6326433;28;20549;-64
2021/05/09 05:42:39;;;;;;;3.83;3.53;;;13.40;92.60;;;;;;6326703;28;20480;-65
2021/05/09 05:45:41;;;;;;;3.80;3.50;;;13.70;92.40;;;;;;6326026;28;20920;-65
2021/05/09 05:48:43;;;;;;;3.30;3.00;;;14.30;91.40;;;;;;6326514;28;20475;-65
2021/05/09 05:51:45;;;;;;;3.37;3.07;;;14.90;90.00;;;;;;6326290;28;20472;-65
2021/05/09 05:54:50;;;;;;;3.53;2.87;;;15.30;88.20;;;;;;6326354;28;20989;-66
2021/05/09 05:57:52;;;;;;;4.70;2.80;;;16.00;85.80;;;;;;6326348;28;20483;-65
2021/05/09 06:00:54;;;;;;;3.30;2.73;;;16.50;82.00;;;;;;6325402;28;20968;-65
2021/05/09 06:03:56;;;;;;;4.10;2.90;;;17.00;80.10;;;;;;6325982;28;20483;-65
2021/05/09 06:06:58;;;;;;;2.90;2.70;;;17.50;76.80;;;;;;6325774;28;20461;-65
2021/05/09 06:10:01;;;;;;;4.70;3.10;;;17.90;73.90;;;;;;6325886;28;20478;-65
2021/05/09 06:13:04;;;;;;;3.33;3.03;;;18.50;70.80;;;;;;6325615;28;20804;-65
2021/05/09 06:16:06;;;;;;;4.33;3.13;;;19.10;67.40;;;;;;6325768;28;20468;-64
2021/05/09 06:19:08;;;;;;;3.23;3.00;;;19.70;63.70;;;;;;6325528;28;20464;-64
2021/05/09 06:22:10;;;;;;;5.80;4.10;;;20.20;61.00;;;;;;6325859;28;20475;-65
2021/05/09 06:25:15;;;;;;;5.17;3.40;;;20.60;59.50;;;;;;6325253;28;20226;-66
2021/05/09 06:28:17;;;;;;;4.27;2.87;;;21.20;57.80;;;;;;6325454;28;20212;-66
2021/05/09 06:31:20;;;;;;;3.07;2.60;;;21.70;56.10;;;;;;6325346;28;20590;-66
2021/05/09 06:34:22;;;;;;;5.13;3.57;;;21.80;54.40;;;;;;6325472;28;20206;-66
2021/05/09 06:37:25;;;;;;;3.97;3.67;;;21.80;54.20;;;;;;6325278;28;20611;-66
2021/05/09 06:40:29;;;;;;;4.30;3.40;;;22.50;52.80;;;;;;6324745;28;20218;-66
2021/05/09 06:43:31;;;;;;;4.40;4.00;;;23.40;50.80;;;;;;6325473;28;20213;-66
2021/05/09 06:46:33;;;;;;;4.03;3.63;;;23.80;49.40;;;;;;6325207;28;20267;-66
2021/05/09 06:49:35;;;;;;;4.43;4.00;;;24.70;47.50;;;;;;6325335;28;20279;-65
2021/05/09 06:52:38;;;;;;;4.20;3.70;;;25.50;45.60;;;;;;6324948;28;20226;-65
2021/05/09 06:55:43;;;;;;;3.90;3.50;;;26.00;43.90;;;;;;6324763;28;20237;-65
2021/05/09 06:58:45;;;;;;;4.00;3.60;;;26.20;42.40;;;;;;6324757;28;20217;-65
2021/05/09 07:01:47;;;;;;;4.40;3.50;;;26.90;41.60;;;;;;6324913;28;20290;-66
2021/05/09 07:04:50;;;;;;;5.23;4.83;;;27.10;40.00;;;;;;6325286;28;20225;-66
2021/05/09 07:07:54;;;;;;;4.37;3.97;;;27.30;39.90;;;;;;6324700;28;20240;-69
2021/05/09 07:10:57;;;;;;;4.47;4.07;;;27.60;39.60;;;;;;6324448;28;20229;-69
2021/05/09 07:13:59;;;;;;;3.73;3.43;;;28.20;38.70;;;;;;6323637;28;20225;-70
2021/05/09 07:17:02;;;;;;;6.03;3.90;;;29.30;37.60;;;;;;6324520;28;20536;-69
2021/05/09 07:20:06;;;;;;;4.83;3.90;;;29.80;36.00;;;;;;6324488;28;20282;-68
2021/05/09 07:23:09;;;;;;;3.40;3.10;;;31.00;34.00;;;;;;6315127;28;20225;-68
2021/05/09 07:26:12;;;;;;;4.00;3.67;;;31.10;33.00;;;;;;6324123;28;20600;-68
2021/05/09 07:29:14;;;;;;;4.73;4.20;;;31.10;32.20;;;;;;6324654;28;20225;-70
2021/05/09 07:32:21;;;;;;;4.10;3.70;;;30.80;32.60;;;;;;6323984;28;20221;-70
2021/05/09 07:35:24;;;;;;;4.40;3.55;;;31.60;31.50;;;;;;6324463;28;20351;-69
2021/05/09 07:38:27;;;;;;;4.72;4.32;;;32.90;30.30;;;;;;6323876;28;20229;-70
2021/05/09 07:41:30;;;;;;;5.38;4.05;;;32.70;29.60;;;;;;6323860;28;20244;-70
2021/05/09 07:44:32;;;;;;;4.43;4.03;;;32.90;29.10;;;;;;6324081;28;20755;-71
2021/05/09 07:47:35;;;;;;;7.22;4.60;;;34.30;28.50;;;;;;6324724;28;20226;-71
2021/05/09 07:50:39;;;;;;;3.95;3.65;;;33.60;28.00;;;;;;6323934;28;20283;-71
2021/05/09 07:53:41;;;;;;;3.25;3.05;;;33.70;28.30;;;;;;6324277;28;20266;-71
2021/05/09 07:56:44;;;;;;;4.20;3.90;;;35.40;27.30;;;;;;6324133;28;20308;-71
2021/05/09 07:59:46;;;;;;;4.50;4.00;;;36.60;25.80;;;;;;6324027;28;20316;-71
2021/05/09 08:02:49;;;;;;;5.53;4.13;;;37.00;25.30;;;;;;6322967;28;20239;-72
2021/05/09 08:05:52;;;;;;;4.40;3.83;;;37.70;24.80;;;;;;6323001;28;20569;-71
2021/05/09 08:08:54;;;;;;;4.95;4.38;;;38.30;24.10;;;;;;6321864;28;20225;-72
2021/05/09 08:11:57;;;;;;;3.55;2.92;;;39.10;23.10;;;;;;6321444;28;20228;-72
2021/05/09 08:14:59;;;;;;;3.92;3.63;;;39.90;22.60;;;;;;6321658;28;20229;-72
2021/05/09 08:18:02;;;;;;;3.33;3.03;;;39.30;22.20;;;;;;6321229;28;20236;-66
2021/05/09 08:21:05;;;;;;;3.00;2.70;;;38.30;22.60;;;;;;6321698;28;20229;-69
2021/05/09 08:24:07;;;;;;;3.80;3.50;;;37.60;23.40;;;;;;6325468;28;20225;-66
2021/05/09 08:27:11;;;;;;;4.18;3.78;;;37.40;23.60;;;;;;6326095;28;20213;-69
2021/05/09 08:30:14;;;;;;;3.55;3.08;;;35.70;24.80;;;;;;6339766;28;20220;-68
2021/05/09 08:33:16;;;;;;;4.03;3.58;;;35.60;25.00;;;;;;6339148;27;20244;-65
2021/05/09 08:36:19;;;;;;;4.07;3.78;;;33.90;25.80;;;;;;6338858;28;20228;-70
2021/05/09 08:39:21;;;;;;;3.40;3.10;;;33.20;26.60;;;;;;6342954;28;20229;-66
2021/05/09 08:42:24;;;;;;;3.10;2.90;;;32.30;27.70;;;;;;6338344;28;20231;-69
2021/05/09 08:45:27;;;;;;;4.00;3.55;;;31.00;28.30;;;;;;6351970;27;20987;-71
2021/05/09 08:48:31;;;;;;;3.90;3.60;;;29.90;30.10;;;;;;6353716;27;20251;-71
2021/05/09 08:51:33;;;;;;;4.03;3.63;;;29.10;31.00;;;;;;6349514;27;20237;-71
2021/05/09 08:54:36;;;;;;;4.47;4.03;;;28.30;32.30;;;;;;6338366;28;20233;-72
2021/05/09 08:57:41;;;;;;;4.27;3.93;;;26.90;35.10;;;;;;6337435;28;20383;-71
2021/05/09 09:00:43;;;;;;;4.43;4.00;;;26.10;37.10;;;;;;6339528;28;20232;-69
2021/05/09 09:03:45;;;;;;;4.60;4.20;;;25.00;38.40;;;;;;6335916;27;20222;-70
2021/05/09 09:06:48;;;;;;;3.83;3.60;;;24.70;39.50;;;;;;6338975;28;20213;-72
2021/05/09 09:09:52;;;;;;;4.30;4.00;;;24.50;39.80;;;;;;6338930;27;20222;-70
2021/05/09 09:12:59;;;;;;;4.50;4.10;;;24.40;41.00;;;;;;6337729;28;20221;-70
2021/05/09 09:16:02;;;;;;;4.33;4.00;;;23.70;41.90;;;;;;6337124;28;20226;-71
2021/05/09 09:19:09;;;;;;;3.90;3.60;;;23.00;42.90;;;;;;6337438;27;20320;-71
2021/05/09 09:22:12;;;;;;;6.47;4.90;;;22.60;44.50;;;;;;6326008;28;20225;-71
2021/05/09 09:25:14;;;;;;;4.00;3.70;;;22.20;45.70;;;;;;6326793;28;20222;-70
2021/05/09 09:28:20;;;;;;;3.93;3.57;;;22.00;46.60;;;;;;6327600;28;20202;-68
2021/05/09 09:31:40;;;;;;;4.10;3.80;;;22.20;46.60;;;;;;6322230;28;20230;-69
2021/05/09 09:34:43;;;;;;;3.80;3.50;;;22.00;47.10;;;;;;6327478;28;20230;-71
2021/05/09 09:37:46;;;;;;;3.87;3.57;;;22.00;47.50;;;;;;6325367;28;20230;-71
2021/05/09 09:41:10;;;;;;;3.70;3.30;;;22.20;47.60;;;;;;6322921;28;20236;-72
2021/05/09 09:44:15;;;;;;;4.67;3.23;;;22.10;47.20;;;;;;6323015;28;20222;-71
2021/05/09 09:47:17;;;;;;;3.80;3.50;;;22.00;47.70;;;;;;6322839;28;20218;-71
2021/05/09 09:50:40;;;;;;;4.07;3.67;;;22.00;47.50;;;;;;6323222;28;20334;-71
2021/05/09 09:53:43;;;;;;;4.47;4.07;;;22.00;48.20;;;;;;6324399;28;20565;-71
2021/05/09 09:56:45;;;;;;;3.83;3.53;;;22.00;48.10;;;;;;6326854;28;20302;-71
2021/05/09 10:00:06;;;;;;;3.97;3.67;;;22.00;48.40;;;;;;6326501;28;20237;-71
2021/05/09 10:03:09;;;;;;;3.70;3.40;;;21.90;48.40;;;;;;6326534;28;20233;-71
2021/05/09 10:06:11;;;;;;;3.80;3.50;;;21.90;48.00;;;;;;6326140;28;20233;-71
2021/05/09 10:09:13;;;;;;;4.70;2.77;;;22.10;48.30;;;;;;6326383;28;20222;-71
2021/05/09 10:12:15;;;;;;;3.37;3.10;;;21.80;48.70;;;;;;6326241;28;20254;-71
2021/05/09 10:15:18;;;;;;;3.40;2.80;;;21.90;48.60;;;;;;6325692;28;20232;-71
2021/05/09 10:18:21;;;;;;;3.80;3.40;;;22.00;48.00;;;;;;6325994;28;20234;-72
2021/05/09 10:21:27;;;;;;;3.10;2.90;;;22.00;47.10;;;;;;6325864;28;20241;-71
2021/05/09 10:24:37;;;;;;;3.13;2.63;;;22.00;47.00;;;;;;6326293;28;20245;-71
2021/05/09 10:27:40;;;;;;;3.40;3.10;;;22.30;46.80;;;;;;6325976;28;20222;-72
2021/05/09 10:30:45;;;;;;;2.83;2.60;;;22.40;45.60;;;;;;6325803;28;20309;-72
2021/05/09 10:33:48;;;;;;;2.90;2.70;;;22.40;46.00;;;;;;6325655;28;20241;-72
2021/05/09 10:36:50;;;;;;;3.30;3.10;;;22.40;45.60;;;;;;6325922;28;20229;-72
2021/05/09 10:40:20;;;;;;;3.50;3.00;;;22.50;46.00;;;;;;6325123;28;20698;-72
2021/05/09 10:43:31;;;;;;;2.97;2.77;;;22.30;46.40;;;;;;6325717;28;20207;-72
2021/05/09 10:47:02;;;;;;;3.27;3.07;;;22.10;46.60;;;;;;6325073;28;20551;-72
2021/05/09 10:50:24;;;;;;;3.67;3.40;;;21.90;47.20;;;;;;6325180;28;20240;-72
2021/05/09 10:53:40;;;;;;;3.33;3.03;;;22.20;47.70;;;;;;6325655;28;20311;-72
2021/05/09 10:56:42;;;;;;;3.33;2.73;;;22.50;47.00;;;;;;6324980;28;20230;-72
2021/05/09 10:59:59;;;;;;;3.40;2.80;;;22.70;47.20;;;;;;6324961;28;20233;-72
2021/05/09 11:03:40;;;;;;;3.40;3.10;;;22.90;46.90;;;;;;6323107;28;20227;-72
2021/05/09 11:06:50;;;;;;;3.47;3.17;;;22.60;48.10;;;;;;6316563;28;20233;-71
2021/05/09 11:09:52;;;;;;;3.00;2.80;;;22.30;47.70;;;;;;6325289;28;20233;-71
2021/05/09 11:13:04;;;;;;;3.23;3.00;;;22.20;49.00;;;;;;6324903;28;20643;-71
2021/05/09 11:16:19;;;;;;;2.70;2.50;;;22.20;48.10;;;;;;6324782;28;20313;-72
2021/05/09 11:19:24;;;;;;;3.00;2.67;;;22.20;47.80;;;;;;6324550;28;20682;-72
2021/05/09 11:22:27;;;;;;;4.30;2.80;;;22.20;48.40;;;;;;6325583;28;20210;-71
2021/05/09 11:25:32;;;;;;;3.23;3.00;;;22.20;48.50;;;;;;6325281;28;20655;-71
2021/05/09 11:28:36;;;;;;;3.70;3.40;;;22.40;48.20;;;;;;6324571;28;20222;-71
2021/05/09 11:31:40;;;;;;;3.43;3.13;;;22.50;47.80;;;;;;6324678;28;20244;-72
2021/05/09 11:35:02;;;;;;;3.30;3.00;;;22.50;48.20;;;;;;6319807;28;20314;-71
2021/05/09 11:38:13;;;;;;;2.63;2.43;;;22.70;47.20;;;;;;6324449;28;20231;-72
2021/05/09 11:41:15;;;;;;;3.23;2.90;;;22.90;46.70;;;;;;6325171;28;20230;-71
2021/05/09 11:44:17;;;;;;;3.20;2.90;;;23.10;46.00;;;;;;6324249;28;20237;-70
2021/05/09 11:47:22;;;;;;;3.27;2.97;;;23.00;46.40;;;;;;6324704;28;20214;-71
2021/05/09 11:50:26;;;;;;;3.10;2.80;;;22.80;46.30;;;;;;6324157;28;20225;-71
2021/05/09 11:53:29;;;;;;;3.43;3.13;;;22.80;46.60;;;;;;6324262;28;20218;-71
2021/05/09 11:56:48;;;;;;;3.50;2.50;;;23.00;47.00;;;;;;6324613;28;20236;-64
2021/05/09 11:59:52;;;;;;;2.47;2.27;;;23.10;47.10;;;;;;6326039;28;20630;-64
2021/05/09 12:02:54;;;;;;;3.90;3.43;;;23.30;47.10;;;;;;6328781;28;20226;-68
2021/05/09 12:06:10;;;;;;;2.90;2.60;;;23.30;47.70;;;;;;6328883;28;20673;-68
2021/05/09 12:09:13;;;;;;;4.77;2.90;;;23.40;48.10;;;;;;6329226;28;20238;-66
2021/05/09 12:12:18;;;;;;;3.10;2.90;;;23.30;47.70;;;;;;6328779;28;20225;-65
2021/05/09 12:15:20;;;;;;;3.80;2.83;;;23.40;47.80;;;;;;6328523;28;20225;-66
2021/05/09 12:18:27;;;;;;;3.20;2.90;;;23.50;47.70;;;;;;6328511;28;20237;-65
2021/05/09 12:21:30;;;;;;;2.73;2.47;;;23.40;48.20;;;;;;6328870;28;20241;-65
2021/05/09 12:24:53;;;;;;;2.40;2.20;;;23.30;47.10;;;;;;6328360;28;20234;-65
2021/05/09 12:27:56;;;;;;;2.10;2.00;;;23.30;47.10;;;;;;6328146;28;20226;-65
2021/05/09 12:31:08;;;;;;;3.30;3.00;;;23.40;47.30;;;;;;6327788;28;20226;-66
2021/05/09 12:34:11;;;;;;;3.03;2.70;;;23.60;46.40;;;;;;6328224;28;20230;-66
2021/05/09 12:37:13;;;;;;;2.17;1.70;;;23.70;46.80;;;;;;6327860;28;20230;-66
2021/05/09 12:40:19;;;;;;;3.03;2.60;;;23.70;47.20;;;;;;6327879;28;20234;-65
2021/05/09 12:43:22;;;;;;;2.67;2.03;;;23.70;46.80;;;;;;6327693;28;20234;-67
2021/05/09 12:46:38;;;;;;;2.60;2.40;;;23.70;47.00;;;;;;6327889;28;20217;-66
2021/05/09 12:49:56;;;;;;;2.13;2.03;;;23.70;47.00;;;;;;6327632;28;20230;-65
2021/05/09 12:53:01;;;;;;;3.87;2.90;;;23.70;47.00;;;;;;6328237;28;20227;-66
2021/05/09 12:56:14;;;;;;;3.47;2.37;;;23.80;46.40;;;;;;6328016;28;20335;-66
2021/05/09 12:59:18;;;;;;;3.10;2.80;;;23.80;46.80;;;;;;6327797;28;20284;-65
2021/05/09 13:02:22;;;;;;;2.17;1.97;;;23.70;47.30;;;;;;6327432;28;20267;-66
2021/05/09 13:05:27;;;;;;;1.87;1.77;;;23.70;47.50;;;;;;6327945;28;20218;-66
2021/05/09 13:08:36;;;;;;;1.87;1.70;;;23.80;46.80;;;;;;6327661;28;20241;-65
2021/05/09 13:11:38;;;;;;;1.90;1.80;;;23.80;47.50;;;;;;6326521;28;20229;-71
2021/05/09 13:14:42;;;;;;;2.23;2.00;;;23.90;45.60;;;;;;6327746;28;20236;-72
2021/05/09 13:17:47;;;;;;;2.17;1.97;;;23.80;45.20;;;;;;6327765;28;20226;-72
2021/05/09 13:20:50;;;;;;;2.47;2.23;;;23.70;45.60;;;;;;6327189;28;20711;-72
2021/05/09 13:23:53;;;;;;;3.27;2.37;;;23.80;45.50;;;;;;6327526;28;20241;-72
2021/05/09 13:26:55;;;;;;;2.50;2.17;;;23.90;45.00;;;;;;6327492;28;20222;-72
2021/05/09 13:29:57;;;;;;;2.03;1.93;;;23.90;45.30;;;;;;6328768;28;20234;-71
2021/05/09 13:33:00;;;;;;;3.10;2.30;;;23.70;45.50;;;;;;6327271;28;20249;-71
2021/05/09 13:36:03;;;;;;;1.97;1.83;;;23.70;45.70;;;;;;6327360;28;20239;-72
2021/05/09 13:39:07;;;;;;;4.03;2.80;;;23.90;45.40;;;;;;6327226;28;20234;-71
2021/05/09 13:42:10;;;;;;;3.07;2.20;;;23.90;45.00;;;;;;6326611;28;20273;-71
2021/05/09 13:45:13;;;;;;;2.53;1.90;;;24.00;45.10;;;;;;6324003;28;20225;-71
2021/05/09 13:48:15;;;;;;;5.00;2.60;;;24.00;44.70;;;;;;6330503;28;20240;-71
2021/05/09 13:51:18;;;;;;;2.10;1.90;;;24.10;45.10;;;;;;6326764;28;20256;-70
2021/05/09 13:54:22;;;;;;;2.10;2.00;;;23.90;45.80;;;;;;6326372;28;20230;-71
2021/05/09 13:57:24;;;;;;;2.00;1.87;;;23.90;45.60;;;;;;6326907;28;20226;-71
2021/05/09 14:00:27;;;;;;;1.80;1.60;;;23.90;45.90;;;;;;6326131;28;20230;-71
2021/05/09 14:03:29;;;;;;;2.60;1.60;;;23.90;46.10;;;;;;6326281;28;20222;-71
2021/05/09 14:06:33;;;;;;;4.33;1.97;;;23.90;45.70;;;;;;6326159;28;20226;-71
2021/05/09 14:09:38;;;;;;;3.00;2.00;;;23.80;45.30;;;;;;6326118;28;20241;-71
2021/05/09 14:12:41;;;;;;;2.00;1.67;;;23.70;44.50;;;;;;6326323;28;20226;-71
2021/05/09 14:15:45;;;;;;;1.70;1.60;;;23.70;44.90;;;;;;6325720;28;20244;-72
2021/05/09 14:18:47;;;;;;;3.13;2.23;;;23.80;44.90;;;;;;6326552;28;20228;-72
2021/05/09 14:21:50;;;;;;;2.30;1.80;;;23.90;45.20;;;;;;6325367;28;20237;-71
2021/05/09 14:24:58;;;;;;;2.50;1.80;;;23.90;45.50;;;;;;6326192;28;20694;-72
2021/05/09 14:28:00;;;;;;;2.47;2.27;;;23.70;45.70;;;;;;6325321;28;20244;-71
2021/05/09 14:31:03;;;;;;;2.10;1.83;;;23.80;46.20;;;;;;6325702;28;20587;-71
2021/05/09 14:34:05;;;;;;;3.33;2.33;;;23.80;46.30;;;;;;6325377;28;20245;-71
2021/05/09 14:37:07;;;;;;;4.17;1.87;;;23.80;45.90;;;;;;6325461;28;20226;-71
2021/05/09 14:40:11;;;;;;;3.77;1.80;;;23.80;45.50;;;;;;6325190;28;20230;-71
2021/05/09 14:43:13;;;;;;;2.20;1.90;;;23.70;45.60;;;;;;6325219;28;20238;-72
2021/05/09 14:46:16;;;;;;;3.20;1.77;;;23.80;45.80;;;;;;6325606;28;20553;-71
2021/05/09 14:49:18;;;;;;;2.37;2.20;;;23.90;45.60;;;;;;6325086;28;20222;-71
2021/05/09 14:52:20;;;;;;;1.83;1.60;;;23.80;45.30;;;;;;6325382;28;20206;-71
2021/05/09 14:55:24;;;;;;;3.63;2.20;;;23.90;45.10;;;;;;6324728;28;20209;-71
2021/05/09 14:58:28;;;;;;;2.10;1.77;;;23.90;45.90;;;;;;6325180;28;20226;-71
2021/05/09 15:01:30;;;;;;;3.57;2.67;;;24.00;45.40;;;;;;6324920;28;20218;-71
2021/05/09 15:04:33;;;;;;;2.33;2.13;;;24.10;45.40;;;;;;6324939;28;20289;-71
2021/05/09 15:07:35;;;;;;;1.93;1.83;;;23.90;45.30;;;;;;6324934;28;20230;-72
2021/05/09 15:10:39;;;;;;;4.57;2.93;;;23.80;45.50;;;;;;6324712;28;20577;-71
2021/05/09 15:13:41;;;;;;;3.00;2.10;;;23.90;45.60;;;;;;6324261;28;20226;-71
2021/05/09 15:16:57;;;;;;;2.60;2.40;;;23.90;45.50;;;;;;6324656;28;20691;-71
2021/05/09 15:20:01;;;;;;;2.13;1.83;;;23.80;45.80;;;;;;6324544;28;20245;-71
2021/05/09 15:23:03;;;;;;;2.00;1.80;;;23.90;45.80;;;;;;6324807;28;20671;-72
2021/05/09 15:26:06;;;;;;;2.03;1.83;;;23.70;45.70;;;;;;6324472;28;20237;-72
2021/05/09 15:29:08;;;;;;;2.60;2.30;;;23.70;45.90;;;;;;6324790;28;20234;-72
2021/05/09 15:32:10;;;;;;;5.70;2.10;;;23.70;45.70;;;;;;6324858;28;20264;-71
2021/05/09 15:35:13;;;;;;;2.80;2.10;;;23.90;45.80;;;;;;6324047;28;20222;-72
2021/05/09 15:38:15;;;;;;;2.93;2.63;;;23.90;45.80;;;;;;6324804;28;20304;-71
2021/05/09 15:41:19;;;;;;;2.70;1.80;;;23.90;45.60;;;;;;6324176;28;20242;-71
2021/05/09 15:44:22;;;;;;;1.60;1.50;;;23.90;45.70;;;;;;6324508;28;20252;-72
2021/05/09 15:47:24;;;;;;;2.47;2.27;;;23.90;45.40;;;;;;6324128;28;20296;-72
2021/05/09 15:50:32;;;;;;;2.63;1.63;;;23.90;45.50;;;;;;6324806;28;20716;-72
2021/05/09 15:53:34;;;;;;;2.20;2.00;;;23.90;45.10;;;;;;6323861;28;20226;-72
2021/05/09 15:56:38;;;;;;;3.33;2.70;;;23.70;45.50;;;;;;6324212;28;20225;-72
2021/05/09 15:59:40;;;;;;;2.27;2.07;;;23.80;45.50;;;;;;6326553;28;20241;-71